createdAt,value
2019-05-13T00:00:15.777Z,4.33
2019-05-13T00:02:44.322Z,3.87
2019-05-13T00:05:14.666Z,3.60
2019-05-13T00:07:44.013Z,4.00
2019-05-13T00:10:14.739Z,3.87
2019-05-13T00:12:44.643Z,3.83
2019-05-13T00:15:14.163Z,4.10
2019-05-13T00:17:44.723Z,4.30
2019-05-13T00:20:14.232Z,4.80
2019-05-13T00:22:44.722Z,4.37
2019-05-13T00:25:14.589Z,4.37
2019-05-13T00:27:44.522Z,4.67
2019-05-13T00:30:14.421Z,4.77
2019-05-13T00:32:44.717Z,3.40
2019-05-13T00:35:14.119Z,4.10
2019-05-13T00:37:44.220Z,3.60
2019-05-13T00:40:14.350Z,3.83
2019-05-13T00:42:44.170Z,4.20
2019-05-13T00:45:14.533Z,4.60
2019-05-13T00:47:44.005Z,4.87
2019-05-13T00:50:14.278Z,4.00
2019-05-13T00:52:44.911Z,4.47
2019-05-13T00:55:14.723Z,4.37
2019-05-13T00:57:44.075Z,3.97
2019-05-13T01:00:14.053Z,3.90
2019-05-13T01:02:44.662Z,2.80
2019-05-13T01:05:14.708Z,2.90
2019-05-13T01:07:44.410Z,2.30
2019-05-13T01:10:13.644Z,2.33
2019-05-13T01:12:44.038Z,2.00
2019-05-13T01:15:13.946Z,2.13
2019-05-13T01:17:44.738Z,2.20
2019-05-13T01:20:14.904Z,2.40
2019-05-13T01:22:44.001Z,2.00
2019-05-13T01:25:14.391Z,2.13
2019-05-13T01:27:44.364Z,2.10
2019-05-13T01:30:14.065Z,2.23
2019-05-13T01:32:44.802Z,2.10
2019-05-13T01:35:14.785Z,2.23
2019-05-13T01:37:46.053Z,2.20
2019-05-13T01:40:14.469Z,2.20
2019-05-13T01:42:44.448Z,2.47
2019-05-13T01:45:13.803Z,2.80
2019-05-13T01:47:44.174Z,2.43
2019-05-13T01:50:14.299Z,2.23
2019-05-13T01:52:44.623Z,2.20
2019-05-13T01:55:14.627Z,2.23
2019-05-13T01:57:44.319Z,2.30
2019-05-13T02:00:14.235Z,2.40
2019-05-13T02:02:44.415Z,1.93
2019-05-13T02:05:14.228Z,2.17
2019-05-13T02:07:56.083Z,2.40
2019-05-13T02:10:15.208Z,2.50
2019-05-13T02:12:44.610Z,2.37
2019-05-13T02:15:14.707Z,2.33
2019-05-13T02:17:44.816Z,2.23
2019-05-13T02:20:14.968Z,1.93
2019-05-13T02:22:44.520Z,2.57
2019-05-13T02:25:13.958Z,2.23
2019-05-13T02:27:43.900Z,2.17
2019-05-13T02:30:16.008Z,1.90
2019-05-13T02:32:43.370Z,2.23
2019-05-13T02:35:14.047Z,2.30
2019-05-13T02:37:43.283Z,2.30
2019-05-13T02:40:13.863Z,2.10
2019-05-13T02:42:43.693Z,2.43
2019-05-13T02:45:13.339Z,2.23
2019-05-13T02:47:44.195Z,2.33
2019-05-13T02:50:13.365Z,2.30
2019-05-13T02:52:44.464Z,2.20
2019-05-13T02:55:12.947Z,2.20
2019-05-13T02:57:43.729Z,2.20
2019-05-13T03:00:13.168Z,2.27
2019-05-13T03:02:43.867Z,2.30
2019-05-13T03:05:13.937Z,2.20
2019-05-13T03:07:43.120Z,2.43
2019-05-13T03:10:13.553Z,2.40
2019-05-13T03:12:43.130Z,2.07
2019-05-13T03:15:13.688Z,2.70
2019-05-13T03:17:53.581Z,2.30
2019-05-13T03:20:23.169Z,2.37
2019-05-13T03:22:52.857Z,2.23
2019-05-13T03:25:22.835Z,2.20
2019-05-13T03:27:54.104Z,2.60
2019-05-13T03:30:25.062Z,2.70
2019-05-13T03:33:00.465Z,2.20
2019-05-13T03:35:26.753Z,2.47
2019-05-13T03:37:53.653Z,2.70
2019-05-13T03:40:23.274Z,2.60
2019-05-13T03:42:53.505Z,2.90
2019-05-13T03:45:25.938Z,3.03
2019-05-13T03:47:56.655Z,2.97
2019-05-13T03:50:25.176Z,2.97
2019-05-13T03:52:53.751Z,2.93
2019-05-13T03:55:23.241Z,2.87
2019-05-13T03:57:53.326Z,2.70
2019-05-13T04:00:23.491Z,2.60
2019-05-13T04:02:53.195Z,2.27
2019-05-13T04:05:23.403Z,3.60
2019-05-13T04:07:52.829Z,3.50
2019-05-13T04:10:22.934Z,2.83
2019-05-13T04:12:52.897Z,2.37
2019-05-13T04:15:23.555Z,2.50
2019-05-13T04:17:53.055Z,2.53
2019-05-13T04:20:23.048Z,2.33
2019-05-13T04:22:53.017Z,2.53
2019-05-13T04:25:23.306Z,2.50
2019-05-13T04:27:53.222Z,2.37
2019-05-13T04:30:22.640Z,1.90
2019-05-13T04:32:53.344Z,2.30
2019-05-13T04:35:23.424Z,2.20
2019-05-13T04:37:52.807Z,2.40
2019-05-13T04:40:23.213Z,2.37
2019-05-13T04:42:53.559Z,2.40
2019-05-13T04:45:24.014Z,2.23
2019-05-13T04:47:52.844Z,2.60
2019-05-13T04:50:22.702Z,2.80
2019-05-13T04:52:52.876Z,2.53
2019-05-13T04:55:22.954Z,2.30
2019-05-13T04:57:53.326Z,2.20
2019-05-13T05:00:23.600Z,2.20
2019-05-13T05:02:56.336Z,2.50
2019-05-13T05:05:56.808Z,2.20
2019-05-13T05:08:47.625Z,1.97
2019-05-13T05:11:25.537Z,2.30
2019-05-13T05:14:13.648Z,2.50
2019-05-13T05:16:44.930Z,2.60
2019-05-13T05:19:23.684Z,2.60
2019-05-13T05:21:55.215Z,2.23
2019-05-13T05:24:23.635Z,2.47
2019-05-13T05:27:12.120Z,2.63
2019-05-13T05:29:58.700Z,2.17
2019-05-13T05:32:31.986Z,2.40
2019-05-13T05:35:25.933Z,2.23
2019-05-13T05:37:57.545Z,2.80
2019-05-13T05:40:32.333Z,2.60
2019-05-13T05:43:02.360Z,2.47
2019-05-13T05:45:32.319Z,2.30
2019-05-13T05:48:04.060Z,3.00
2019-05-13T05:50:33.309Z,2.80
2019-05-13T05:53:04.044Z,2.20
2019-05-13T05:55:33.820Z,2.70
2019-05-13T05:58:02.699Z,2.40
2019-05-13T06:00:32.708Z,2.43
2019-05-13T06:03:03.088Z,2.30
2019-05-13T06:05:31.924Z,2.53
2019-05-13T06:08:01.945Z,2.47
2019-05-13T06:10:44.186Z,2.27
2019-05-13T06:13:01.863Z,2.27
2019-05-13T06:15:31.588Z,2.43
2019-05-13T06:18:02.267Z,2.40
2019-05-13T06:20:31.666Z,2.37
2019-05-13T06:23:02.208Z,2.40
2019-05-13T06:25:33.620Z,2.00
2019-05-13T06:28:01.803Z,2.40
2019-05-13T06:30:32.569Z,2.73
2019-05-13T06:33:01.643Z,2.77
2019-05-13T06:35:32.303Z,2.50
2019-05-13T06:38:01.424Z,2.47
2019-05-13T06:40:31.839Z,2.40
2019-05-13T06:43:01.489Z,2.10
2019-05-13T06:45:31.622Z,2.37
2019-05-13T06:48:02.407Z,2.30
2019-05-13T06:50:32.311Z,2.00
2019-05-13T06:53:02.168Z,2.40
2019-05-13T06:55:31.576Z,2.00
2019-05-13T06:58:02.247Z,1.67
2019-05-13T07:00:34.657Z,2.10
2019-05-13T07:03:02.277Z,1.80
2019-05-13T07:05:31.776Z,2.43
2019-05-13T07:08:02.015Z,2.07
2019-05-13T07:10:32.114Z,2.07
2019-05-13T07:13:02.180Z,2.00
2019-05-13T07:15:31.455Z,2.00
2019-05-13T07:18:02.294Z,2.10
2019-05-13T07:20:32.127Z,2.10
2019-05-13T07:23:01.630Z,2.17
2019-05-13T07:25:32.625Z,2.20
2019-05-13T07:28:02.163Z,2.00
2019-05-13T07:30:42.327Z,2.50
2019-05-13T07:33:12.485Z,2.40
2019-05-13T07:35:44.599Z,2.00
2019-05-13T07:38:11.870Z,2.03
2019-05-13T07:40:41.824Z,2.77
2019-05-13T07:43:12.393Z,1.90
2019-05-13T07:45:42.404Z,2.30
2019-05-13T07:48:20.597Z,1.90
2019-05-13T07:50:55.539Z,1.90
2019-05-13T07:53:18.192Z,1.90
2019-05-13T07:55:42.191Z,2.20
2019-05-13T07:58:11.703Z,2.10
2019-05-13T08:00:41.950Z,1.70
2019-05-13T08:03:12.298Z,2.00
2019-05-13T08:05:41.830Z,1.87
2019-05-13T08:08:11.745Z,1.93
2019-05-13T08:10:41.571Z,2.03
2019-05-13T08:13:11.934Z,2.13
2019-05-13T08:15:42.165Z,2.03
2019-05-13T08:18:12.280Z,2.00
2019-05-13T08:20:44.004Z,2.13
2019-05-13T08:23:12.606Z,1.97
2019-05-13T08:25:42.414Z,2.07
2019-05-13T08:28:12.309Z,2.27
2019-05-13T08:30:42.664Z,2.20
2019-05-13T08:33:12.625Z,2.20
2019-05-13T08:35:41.883Z,2.13
2019-05-13T08:38:12.088Z,2.20
2019-05-13T08:40:42.425Z,1.80
2019-05-13T08:43:12.097Z,2.00
2019-05-13T08:45:42.261Z,2.20
2019-05-13T08:48:12.780Z,2.10
2019-05-13T08:50:42.027Z,1.73
2019-05-13T08:53:12.180Z,2.17
2019-05-13T08:55:42.707Z,1.80
2019-05-13T08:58:12.498Z,2.13
2019-05-13T09:00:48.384Z,2.20
2019-05-13T09:03:18.192Z,1.90
2019-05-13T09:05:47.573Z,2.00
2019-05-13T09:08:17.878Z,2.30
2019-05-13T09:10:46.727Z,1.93
2019-05-13T09:13:15.020Z,2.40
2019-05-13T09:15:43.641Z,2.30
2019-05-13T09:18:12.541Z,2.20
2019-05-13T09:20:41.707Z,1.90
2019-05-13T09:23:11.451Z,2.47
2019-05-13T09:25:41.583Z,2.13
2019-05-13T09:28:12.521Z,1.77
2019-05-13T09:30:42.343Z,2.07
2019-05-13T09:33:11.546Z,1.83
2019-05-13T09:35:42.274Z,2.17
2019-05-13T09:38:12.651Z,1.90
2019-05-13T09:40:42.289Z,2.17
2019-05-13T09:43:11.726Z,1.90
2019-05-13T09:45:41.833Z,1.97
2019-05-13T09:48:12.754Z,1.90
2019-05-13T09:50:42.538Z,1.97
2019-05-13T09:53:11.597Z,2.23
2019-05-13T09:55:41.554Z,1.57
2019-05-13T09:58:11.840Z,2.40
2019-05-13T10:00:42.084Z,1.90
2019-05-13T10:03:13.590Z,2.37
2019-05-13T10:05:41.020Z,2.10
2019-05-13T10:08:12.518Z,2.20
2019-05-13T10:10:42.372Z,1.83
2019-05-13T10:13:13.121Z,1.70
2019-05-13T10:15:42.048Z,1.97
2019-05-13T10:18:12.538Z,1.70
2019-05-13T10:20:58.004Z,1.80
2019-05-13T10:23:23.796Z,1.73
2019-05-13T10:25:53.396Z,1.50
2019-05-13T10:28:22.676Z,2.33
2019-05-13T10:30:53.154Z,1.93
2019-05-13T10:33:22.326Z,1.80
2019-05-13T10:35:52.454Z,1.87
2019-05-13T10:38:25.077Z,1.83
2019-05-13T10:40:52.733Z,1.80
2019-05-13T10:45:52.580Z,1.60
2019-05-13T10:48:22.157Z,1.63
2019-05-13T10:50:52.862Z,1.60
2019-05-13T10:53:22.016Z,1.70
2019-05-13T10:55:52.192Z,2.00
2019-05-13T10:58:23.309Z,1.90
2019-05-13T11:00:53.939Z,1.70
2019-05-13T11:03:23.138Z,1.90
2019-05-13T11:05:52.800Z,1.90
2019-05-13T11:08:22.487Z,2.20
2019-05-13T11:10:53.086Z,1.67
2019-05-13T11:13:23.195Z,1.53
2019-05-13T11:18:24.434Z,1.70
2019-05-13T11:20:52.417Z,1.87
2019-05-13T11:23:23.239Z,1.47
2019-05-13T11:25:52.300Z,2.00
2019-05-13T11:28:21.129Z,1.60
2019-05-13T11:30:52.054Z,1.90
2019-05-13T11:33:22.237Z,2.20
2019-05-13T11:35:52.365Z,1.93
2019-05-13T11:38:22.180Z,1.50
2019-05-13T11:40:52.395Z,2.10
2019-05-13T11:43:21.497Z,1.63
2019-05-13T11:45:51.671Z,2.03
2019-05-13T11:48:23.157Z,1.83
2019-05-13T11:50:53.914Z,1.80
2019-05-13T11:53:37.595Z,1.80
2019-05-13T11:55:52.258Z,1.87
2019-05-13T11:58:21.036Z,1.60
2019-05-13T12:00:53.465Z,1.60
2019-05-13T12:03:23.000Z,1.73
2019-05-13T12:05:53.698Z,1.63
2019-05-13T12:08:23.113Z,1.57
2019-05-13T12:10:52.227Z,1.80
2019-05-13T12:13:23.203Z,1.80
2019-05-13T12:15:53.875Z,1.67
2019-05-13T12:18:23.715Z,1.73
2019-05-13T12:20:53.911Z,1.60
2019-05-13T12:23:22.120Z,2.60
2019-05-13T12:25:52.888Z,1.70
2019-05-13T12:28:20.881Z,1.63
2019-05-13T12:30:52.796Z,1.60
2019-05-13T12:33:22.385Z,1.73
2019-05-13T12:35:53.010Z,1.73
2019-05-13T12:38:22.587Z,1.70
2019-05-13T12:40:53.026Z,1.90
2019-05-13T12:43:23.032Z,1.60
2019-05-13T12:45:53.058Z,1.60
2019-05-13T12:48:22.863Z,1.73
2019-05-13T12:50:54.013Z,1.43
2019-05-13T12:53:22.137Z,1.37
2019-05-13T12:55:55.786Z,1.63
2019-05-13T12:58:23.799Z,1.83
2019-05-13T13:00:53.300Z,1.83
2019-05-13T13:03:23.127Z,1.70
2019-05-13T13:05:51.671Z,1.60
2019-05-13T13:08:38.196Z,1.50
2019-05-13T13:10:53.274Z,1.73
2019-05-13T13:13:26.809Z,1.93
2019-05-13T13:15:52.827Z,1.60
2019-05-13T13:18:22.430Z,1.60
2019-05-13T13:20:58.011Z,1.90
2019-05-13T13:23:23.503Z,1.90
2019-05-13T13:25:56.154Z,1.73
2019-05-13T13:28:24.019Z,1.90
2019-05-13T13:30:53.094Z,1.90
2019-05-13T13:33:22.051Z,1.90
2019-05-13T13:35:58.969Z,1.90
2019-05-13T13:38:25.272Z,1.30
2019-05-13T13:40:53.453Z,1.67
2019-05-13T13:43:24.731Z,1.60
2019-05-13T13:46:07.554Z,1.60
2019-05-13T13:48:25.486Z,1.40
2019-05-13T13:50:55.709Z,1.60
2019-05-13T13:53:26.169Z,1.67
2019-05-13T13:55:55.827Z,1.80
2019-05-13T13:58:25.468Z,1.80
2019-05-13T14:01:05.936Z,1.40
2019-05-13T14:03:22.580Z,1.90
2019-05-13T14:05:53.556Z,1.73
2019-05-13T14:06:26.939Z,1.80
2019-05-13T14:06:28.715Z,1.70
2019-05-13T14:08:21.691Z,1.67
2019-05-13T14:10:51.488Z,1.80
2019-05-13T14:13:21.832Z,2.00
2019-05-13T14:15:52.691Z,2.10
2019-05-13T14:18:26.348Z,2.23
2019-05-13T14:20:52.914Z,1.90
2019-05-13T14:23:21.478Z,1.80
2019-05-13T14:25:52.119Z,1.90
2019-05-13T14:28:22.515Z,1.60
2019-05-13T14:30:51.413Z,2.00
2019-05-13T14:33:20.253Z,1.90
2019-05-13T14:35:48.827Z,2.10
2019-05-13T14:38:17.367Z,1.70
2019-05-13T14:40:46.242Z,1.73
2019-05-13T14:43:15.104Z,1.90
2019-05-13T14:45:43.672Z,1.60
2019-05-13T14:48:12.735Z,1.43
2019-05-13T14:50:41.607Z,2.00
2019-05-13T14:53:10.457Z,1.80
2019-05-13T14:55:41.764Z,1.90
2019-05-13T14:58:09.398Z,2.13
2019-05-13T15:00:37.627Z,1.67
2019-05-13T15:03:06.228Z,2.00
2019-05-13T15:05:34.903Z,1.87
2019-05-13T15:08:03.470Z,1.60
2019-05-13T15:10:31.717Z,1.90
2019-05-13T15:13:03.058Z,1.90
2019-05-13T15:15:31.699Z,2.00
2019-05-13T15:18:01.443Z,1.70
2019-05-13T15:20:32.901Z,1.80
2019-05-13T15:23:00.457Z,1.80
2019-05-13T15:25:31.273Z,1.70
2019-05-13T15:27:59.314Z,1.40
2019-05-13T15:30:27.873Z,1.60
2019-05-13T15:32:56.412Z,1.90
2019-05-13T15:35:25.012Z,1.83
2019-05-13T15:37:53.565Z,1.93
2019-05-13T15:40:22.162Z,2.10
2019-05-13T15:42:51.761Z,1.60
2019-05-13T15:45:21.320Z,1.93
2019-05-13T15:47:51.575Z,1.90
2019-05-13T15:50:21.454Z,1.50
2019-05-13T15:52:50.147Z,1.63
2019-05-13T15:55:18.448Z,1.87
2019-05-13T15:57:47.026Z,1.87
2019-05-13T16:00:15.662Z,1.70
2019-05-13T16:02:44.196Z,2.80
2019-05-13T16:05:12.753Z,2.13
2019-05-13T16:07:41.880Z,1.67
2019-05-13T16:10:11.270Z,1.80
2019-05-13T16:12:40.034Z,2.00
2019-05-13T16:15:14.824Z,2.00
2019-05-13T16:17:44.087Z,1.70
2019-05-13T16:20:10.371Z,1.70
2019-05-13T16:22:38.915Z,2.00
2019-05-13T16:25:08.654Z,1.90
2019-05-13T16:27:37.184Z,1.90
2019-05-13T16:30:05.789Z,1.97
2019-05-13T16:32:34.480Z,2.00
2019-05-13T16:35:03.141Z,2.13
2019-05-13T16:37:31.648Z,1.63
2019-05-13T16:40:00.235Z,2.10
2019-05-13T16:42:28.804Z,2.23
2019-05-13T16:44:57.344Z,2.30
2019-05-13T16:47:25.727Z,3.37
2019-05-13T16:49:54.291Z,2.20
2019-05-13T16:52:22.871Z,1.87
2019-05-13T16:54:53.382Z,2.27
2019-05-13T16:57:21.354Z,2.10
2019-05-13T16:59:51.688Z,2.13
2019-05-13T17:02:20.114Z,2.10
2019-05-13T17:04:48.652Z,1.70
2019-05-13T17:07:17.254Z,1.97
2019-05-13T17:09:45.501Z,2.00
2019-05-13T17:12:15.922Z,1.90
2019-05-13T17:14:44.283Z,2.00
2019-05-13T17:17:12.853Z,2.40
2019-05-13T17:19:42.239Z,1.80
2019-05-13T17:22:11.036Z,2.00
2019-05-13T17:24:42.433Z,2.20
2019-05-13T17:27:11.980Z,2.13
2019-05-13T17:29:39.976Z,2.10
2019-05-13T17:32:08.616Z,2.10
2019-05-13T17:34:37.156Z,2.00
2019-05-13T17:37:05.716Z,2.03
2019-05-13T17:39:34.258Z,1.70
2019-05-13T17:42:02.825Z,2.10
2019-05-13T17:44:32.010Z,1.90
2019-05-13T17:47:01.769Z,2.10
2019-05-13T17:49:31.829Z,2.10
2019-05-13T17:52:02.364Z,2.20
2019-05-13T17:54:31.820Z,2.13
2019-05-13T17:57:01.913Z,1.90
2019-05-13T17:59:31.488Z,1.87
2019-05-13T18:02:02.631Z,2.47
2019-05-13T18:04:31.469Z,1.93
2019-05-13T18:07:01.604Z,2.17
2019-05-13T18:09:31.847Z,1.93
2019-05-13T18:12:02.430Z,1.90
2019-05-13T18:14:31.210Z,2.27
2019-05-13T18:17:01.414Z,1.90
2019-05-13T18:19:31.518Z,2.43
2019-05-13T18:22:01.946Z,2.13
2019-05-13T18:24:32.025Z,2.30
2019-05-13T18:27:01.309Z,2.50
2019-05-13T18:29:31.620Z,2.10
2019-05-13T18:32:01.926Z,2.07
2019-05-13T18:34:32.181Z,2.30
2019-05-13T18:37:02.375Z,1.90
2019-05-13T18:39:32.252Z,1.80
2019-05-13T18:42:00.952Z,2.20
2019-05-13T18:44:31.489Z,1.77
2019-05-13T18:47:01.496Z,1.90
2019-05-13T18:49:31.806Z,2.47
2019-05-13T18:52:00.248Z,2.07
2019-05-13T18:54:31.370Z,2.00
2019-05-13T18:57:01.387Z,2.00
2019-05-13T18:59:29.322Z,2.17
2019-05-13T19:01:57.890Z,2.00
2019-05-13T19:04:26.115Z,2.20
2019-05-13T19:06:54.660Z,2.40
2019-05-13T19:09:23.284Z,4.03
2019-05-13T19:11:51.820Z,1.90
2019-05-13T19:14:21.251Z,2.57
2019-05-13T19:16:49.863Z,2.33
2019-05-13T19:19:22.241Z,2.93
2019-05-13T19:21:50.993Z,2.30
2019-05-13T19:24:18.896Z,2.10
2019-05-13T19:26:47.816Z,2.03
2019-05-13T19:29:16.414Z,3.00
2019-05-13T19:31:44.952Z,2.13
2019-05-13T19:34:13.520Z,1.87
2019-05-13T19:36:42.061Z,2.03
2019-05-13T19:39:11.447Z,1.90
2019-05-13T19:41:42.307Z,2.47
2019-05-13T19:44:10.550Z,2.00
2019-05-13T19:46:39.095Z,1.97
2019-05-13T19:49:07.693Z,2.30
2019-05-13T19:51:36.225Z,2.50
2019-05-13T19:54:04.932Z,2.33
2019-05-13T19:56:33.473Z,2.50
2019-05-13T19:59:02.036Z,2.30
2019-05-13T20:01:32.214Z,2.10
2019-05-13T20:04:02.329Z,2.20
2019-05-13T20:06:31.970Z,2.70
2019-05-13T20:09:01.477Z,2.20
2019-05-13T20:11:30.272Z,2.13
2019-05-13T20:14:01.550Z,2.50
2019-05-13T20:16:32.071Z,2.40
2019-05-13T20:19:01.257Z,2.47
2019-05-13T20:21:31.953Z,2.27
2019-05-13T20:24:00.244Z,2.57
2019-05-13T20:26:28.808Z,2.37
2019-05-13T20:28:57.019Z,2.30
2019-05-13T20:31:25.615Z,2.50
2019-05-13T20:33:54.147Z,2.40
2019-05-13T20:36:22.757Z,2.33
2019-05-13T20:38:51.697Z,2.73
2019-05-13T20:41:22.392Z,2.50
2019-05-13T20:43:52.124Z,2.20
2019-05-13T20:46:23.190Z,2.50
2019-05-13T20:48:51.916Z,2.30
2019-05-13T20:51:21.976Z,2.23
2019-05-13T20:53:51.775Z,2.50
2019-05-13T20:56:21.412Z,2.10
2019-05-13T20:58:51.601Z,2.60
2019-05-13T21:01:20.294Z,2.23
2019-05-13T21:03:51.342Z,2.47
2019-05-13T21:06:19.075Z,2.20
2019-05-13T21:08:47.280Z,2.53
2019-05-13T21:11:15.866Z,2.30
2019-05-13T21:13:44.392Z,2.33
2019-05-13T21:16:12.949Z,2.17
2019-05-13T21:18:42.124Z,2.30
2019-05-13T21:21:11.618Z,2.37
2019-05-13T21:23:41.689Z,2.30
2019-05-13T21:26:13.172Z,2.23
2019-05-13T21:28:41.890Z,2.40
2019-05-13T21:31:11.337Z,2.23
2019-05-13T21:33:40.031Z,2.37
2019-05-13T21:36:08.584Z,2.63
2019-05-13T21:38:37.124Z,2.50
2019-05-13T21:41:05.776Z,2.40
2019-05-13T21:43:34.316Z,2.73
2019-05-13T21:46:02.910Z,2.70
2019-05-13T21:48:32.416Z,2.43
2019-05-13T21:51:01.204Z,2.10
2019-05-13T21:53:32.328Z,2.73
2019-05-13T21:56:02.128Z,2.80
2019-05-13T21:58:31.249Z,2.87
2019-05-13T22:01:01.583Z,2.60
2019-05-13T22:03:33.164Z,2.83
2019-05-13T22:06:01.920Z,2.50
2019-05-13T22:08:32.047Z,2.57
2019-05-13T22:11:01.788Z,2.70
2019-05-13T22:13:31.632Z,2.40
2019-05-13T22:16:01.714Z,2.40
2019-05-13T22:18:31.351Z,2.53
2019-05-13T22:21:01.386Z,2.90
2019-05-13T22:23:32.179Z,2.70
2019-05-13T22:26:01.639Z,2.80
2019-05-13T22:28:31.253Z,2.30
2019-05-13T22:31:01.399Z,2.67
2019-05-13T22:33:32.408Z,2.90
2019-05-13T22:36:01.590Z,2.90
2019-05-13T22:38:32.353Z,3.13
2019-05-13T22:41:01.243Z,2.80
2019-05-13T22:43:32.126Z,3.00
2019-05-13T22:46:00.240Z,2.60
2019-05-13T22:48:31.021Z,3.20
2019-05-13T22:51:01.153Z,3.03
2019-05-13T22:53:31.592Z,3.53
2019-05-13T22:55:59.404Z,3.37
2019-05-13T22:58:27.960Z,2.80
2019-05-13T23:00:56.500Z,2.80
2019-05-13T23:03:25.062Z,2.97
2019-05-13T23:05:53.668Z,2.90
2019-05-13T23:08:22.228Z,2.77
2019-05-13T23:10:51.477Z,2.70
2019-05-13T23:13:20.297Z,2.87
2019-05-13T23:15:48.940Z,2.70
2019-05-13T23:18:17.493Z,3.17
2019-05-13T23:20:45.742Z,2.93
2019-05-13T23:23:14.298Z,2.73
2019-05-13T23:25:43.323Z,2.87
2019-05-13T23:28:11.996Z,2.90
2019-05-13T23:30:41.745Z,2.77
2019-05-13T23:33:11.583Z,2.77
2019-05-13T23:35:41.800Z,3.33
2019-05-13T23:38:10.723Z,3.00
2019-05-13T23:40:39.413Z,4.00
2019-05-13T23:43:07.639Z,4.33
2019-05-13T23:45:35.852Z,4.47
2019-05-13T23:48:04.446Z,3.23
2019-05-13T23:50:32.980Z,2.60
2019-05-13T23:53:01.578Z,2.80
2019-05-13T23:55:32.072Z,2.90
2019-05-13T23:58:01.745Z,2.60
